createdAt,value
2023-01-25T00:02:03.355Z,101196.94
2023-01-25T00:04:32.109Z,101192.78
2023-01-25T00:07:02.146Z,101188.53
2023-01-25T00:09:30.812Z,101181.75
2023-01-25T00:11:59.417Z,101186.84
2023-01-25T00:14:28.155Z,101182.63
2023-01-25T00:16:56.824Z,101185.97
2023-01-25T00:19:25.490Z,101169.91
2023-01-25T00:21:54.103Z,101172.47
2023-01-25T00:24:25.903Z,101167.38
2023-01-25T00:26:54.554Z,101166.50
2023-01-25T00:29:23.204Z,101168.22
2023-01-25T00:32:00.339Z,101164.00
2023-01-25T00:34:47.668Z,101152.19
2023-01-25T00:37:24.956Z,101159.81
2023-01-25T00:39:54.991Z,101163.22
2023-01-25T00:42:24.014Z,101160.69
2023-01-25T00:44:52.686Z,101153.09
2023-01-25T00:47:21.897Z,101166.66
2023-01-25T00:49:50.514Z,101154.00
2023-01-25T00:52:19.433Z,101145.56
2023-01-25T00:54:48.595Z,101149.81
2023-01-25T00:57:18.605Z,101143.06
2023-01-25T00:59:47.596Z,101140.53
2023-01-25T01:02:16.922Z,101144.75
2023-01-25T01:04:45.500Z,101139.69
2023-01-25T01:07:15.518Z,101141.41
2023-01-25T01:09:44.246Z,101145.66
2023-01-25T01:12:13.099Z,101154.94
2023-01-25T01:14:43.402Z,101148.22
2023-01-25T01:17:12.096Z,101147.34
2023-01-25T01:19:41.808Z,101140.59
2023-01-25T01:22:10.604Z,101134.72
2023-01-25T01:24:39.610Z,101138.06
2023-01-25T01:27:08.207Z,101131.28
2023-01-25T01:29:37.059Z,101134.66
2023-01-25T01:32:07.648Z,101130.44
2023-01-25T01:34:36.936Z,101131.25
2023-01-25T01:37:15.729Z,101133.78
2023-01-25T01:39:44.444Z,101135.47
2023-01-25T01:42:13.172Z,101138.84
2023-01-25T01:44:48.725Z,101134.63
2023-01-25T01:47:24.059Z,101139.69
2023-01-25T01:50:03.000Z,101135.44
2023-01-25T01:52:37.611Z,101134.63
2023-01-25T01:55:11.780Z,101135.47
2023-01-25T01:57:45.417Z,101142.22
2023-01-25T02:00:18.205Z,101139.72
2023-01-25T02:02:51.491Z,101140.59
2023-01-25T02:05:27.265Z,101132.19
2023-01-25T02:07:57.618Z,101124.63
2023-01-25T02:10:28.452Z,101129.69
2023-01-25T02:12:59.099Z,101114.50
2023-01-25T02:15:31.149Z,101115.31
2023-01-25T02:18:01.521Z,101113.63
2023-01-25T02:20:38.276Z,101113.63
2023-01-25T02:23:18.074Z,101115.28
2023-01-25T02:25:48.141Z,101111.06
2023-01-25T02:28:21.882Z,101102.59
2023-01-25T02:30:50.860Z,101101.72
2023-01-25T02:33:19.986Z,101106.72
2023-01-25T02:35:51.465Z,101111.81
2023-01-25T02:38:22.725Z,101110.13
2023-01-25T02:41:01.923Z,101107.59
2023-01-25T02:43:35.736Z,101110.13
2023-01-25T02:46:14.732Z,101101.66
2023-01-25T02:48:46.721Z,101101.69
2023-01-25T02:51:15.715Z,101106.72
2023-01-25T02:53:44.397Z,101099.13
2023-01-25T02:56:14.822Z,101104.16
2023-01-25T02:58:43.637Z,101102.47
2023-01-25T03:01:13.788Z,101101.59
2023-01-25T03:03:43.307Z,101102.47
2023-01-25T03:06:12.826Z,101091.50
2023-01-25T03:08:43.831Z,101097.38
2023-01-25T03:11:13.881Z,101090.63
2023-01-25T03:13:42.622Z,101083.91
2023-01-25T03:16:14.382Z,101086.47
2023-01-25T03:18:46.490Z,101089.00
2023-01-25T03:21:19.677Z,101090.63
2023-01-25T03:23:50.141Z,101085.56
2023-01-25T03:26:25.922Z,101088.09
2023-01-25T03:29:17.554Z,101081.34
2023-01-25T03:31:49.222Z,101078.84
2023-01-25T03:34:18.089Z,101075.44
2023-01-25T03:36:46.676Z,101077.13
2023-01-25T03:39:16.531Z,101077.97
2023-01-25T03:41:46.819Z,101078.84
2023-01-25T03:44:15.945Z,101078.03
2023-01-25T03:46:48.328Z,101080.63
2023-01-25T03:49:18.554Z,101084.00
2023-01-25T03:51:47.750Z,101079.84
2023-01-25T03:54:17.332Z,101073.09
2023-01-25T03:56:47.635Z,101075.69
2023-01-25T03:59:22.225Z,101077.38
2023-01-25T04:01:51.943Z,101075.72
2023-01-25T04:04:21.522Z,101078.28
2023-01-25T04:06:51.401Z,101068.19
2023-01-25T04:09:20.405Z,101066.50
2023-01-25T04:11:54.678Z,101070.72
2023-01-25T04:14:42.505Z,101064.88
2023-01-25T04:17:14.222Z,101068.25
2023-01-25T04:19:55.321Z,101067.47
2023-01-25T04:22:28.869Z,101068.31
2023-01-25T04:24:58.750Z,101066.59
2023-01-25T04:27:28.871Z,101064.91
2023-01-25T04:30:05.787Z,101072.53
2023-01-25T04:32:38.112Z,101063.25
2023-01-25T04:35:17.593Z,101058.16
2023-01-25T04:37:56.080Z,101054.78
2023-01-25T04:40:27.580Z,101059.84
2023-01-25T04:42:59.334Z,101058.13
2023-01-25T04:45:28.216Z,101049.69
2023-01-25T04:47:58.650Z,101050.50
2023-01-25T04:50:29.282Z,101052.19
2023-01-25T04:52:58.019Z,101047.94
2023-01-25T04:55:27.405Z,101049.63
2023-01-25T04:58:01.070Z,101044.56
2023-01-25T05:00:31.081Z,101042.84
2023-01-25T05:03:02.024Z,101042.84
2023-01-25T05:05:30.686Z,101041.13
2023-01-25T05:08:00.250Z,101043.69
2023-01-25T05:10:30.879Z,101045.34
2023-01-25T05:13:21.008Z,101041.13
2023-01-25T05:15:52.430Z,101036.91
2023-01-25T05:18:21.074Z,101037.75
2023-01-25T05:20:56.735Z,101030.13
2023-01-25T05:23:27.455Z,101031.78
2023-01-25T05:26:14.401Z,101020.00
2023-01-25T05:28:44.493Z,101016.63
2023-01-25T05:31:33.490Z,101017.50
2023-01-25T05:34:02.180Z,101009.88
2023-01-25T05:36:30.872Z,101006.44
2023-01-25T05:38:59.533Z,100998.84
2023-01-25T05:41:31.843Z,100996.31
2023-01-25T05:44:02.212Z,100987.91
2023-01-25T05:46:32.709Z,100986.22
2023-01-25T05:49:01.636Z,100994.66
2023-01-25T05:51:30.898Z,100990.41
2023-01-25T05:54:00.565Z,100997.19
2023-01-25T05:56:30.059Z,100995.53
2023-01-25T05:59:03.094Z,100990.44
2023-01-25T06:01:31.840Z,100996.38
2023-01-25T06:04:00.947Z,100993.06
2023-01-25T06:06:29.934Z,100997.28
2023-01-25T06:08:58.691Z,100993.91
2023-01-25T06:11:27.770Z,100992.22
2023-01-25T06:13:57.092Z,100991.41
2023-01-25T06:16:27.620Z,101001.56
2023-01-25T06:18:56.204Z,100992.25
2023-01-25T06:21:27.666Z,101002.41
2023-01-25T06:23:56.364Z,101000.69
2023-01-25T06:26:25.139Z,100995.63
2023-01-25T06:28:53.833Z,101001.56
2023-01-25T06:31:22.650Z,101001.56
2023-01-25T06:33:53.741Z,101010.81
2023-01-25T06:36:24.502Z,101004.09
2023-01-25T06:38:54.094Z,101001.56
2023-01-25T06:41:23.241Z,101000.72
2023-01-25T06:43:52.818Z,101003.31
2023-01-25T06:46:21.692Z,100992.34
2023-01-25T06:48:50.347Z,100989.81
2023-01-25T06:51:20.556Z,100989.00
2023-01-25T06:53:49.184Z,100989.81
2023-01-25T06:56:21.523Z,100994.06
2023-01-25T06:58:51.614Z,100985.59
2023-01-25T07:01:22.474Z,100988.97
2023-01-25T07:03:51.688Z,100987.28
2023-01-25T07:06:22.631Z,100989.81
2023-01-25T07:08:52.315Z,100985.59
2023-01-25T07:11:21.060Z,100983.06
2023-01-25T07:13:49.768Z,100988.16
2023-01-25T07:16:20.647Z,100983.06
2023-01-25T07:18:49.824Z,100986.47
2023-01-25T07:21:22.234Z,100988.19
2023-01-25T07:23:51.622Z,100987.31
2023-01-25T07:26:22.301Z,100994.91
2023-01-25T07:28:51.277Z,100994.09
2023-01-25T07:31:21.126Z,100994.09
2023-01-25T07:33:50.657Z,100992.41
2023-01-25T07:36:21.437Z,100993.28
2023-01-25T07:38:50.678Z,100988.19
2023-01-25T07:41:19.315Z,100988.19
2023-01-25T07:43:47.951Z,100981.44
2023-01-25T07:46:28.811Z,100984.00
2023-01-25T07:48:58.899Z,100988.19
2023-01-25T07:51:31.099Z,100989.03
2023-01-25T07:54:01.614Z,100991.56
2023-01-25T07:56:34.358Z,100994.91
2023-01-25T07:59:03.800Z,100987.34
2023-01-25T08:01:34.565Z,100978.06
2023-01-25T08:04:05.875Z,100984.84
2023-01-25T08:06:39.332Z,100990.75
2023-01-25T08:09:12.123Z,100993.28
2023-01-25T08:11:41.168Z,100987.34
2023-01-25T08:14:11.408Z,100988.19
2023-01-25T08:16:40.189Z,100984.78
2023-01-25T08:19:12.822Z,100988.19
2023-01-25T08:21:42.950Z,100987.34
2023-01-25T08:24:11.929Z,100978.88
2023-01-25T08:26:40.638Z,100984.78
2023-01-25T08:29:09.251Z,100983.06
2023-01-25T08:31:38.722Z,100977.97
2023-01-25T08:34:07.941Z,100976.22
2023-01-25T08:36:36.581Z,100971.16
2023-01-25T08:39:09.617Z,100969.41
2023-01-25T08:41:38.310Z,100966.03
2023-01-25T08:44:07.491Z,100963.47
2023-01-25T08:46:36.208Z,100966.84
2023-01-25T08:49:05.502Z,100960.91
2023-01-25T08:51:34.900Z,100955.81
2023-01-25T08:54:07.153Z,100951.59
2023-01-25T08:56:38.277Z,100949.88
2023-01-25T08:59:07.329Z,100944.81
2023-01-25T09:01:36.216Z,100947.31
2023-01-25T09:04:05.359Z,100943.09
2023-01-25T09:06:34.980Z,100951.50
2023-01-25T09:09:04.805Z,100952.38
2023-01-25T09:11:37.239Z,100949.00
2023-01-25T09:14:06.214Z,100942.22
2023-01-25T09:16:35.162Z,100943.09
2023-01-25T09:19:06.440Z,100943.91
2023-01-25T09:21:37.207Z,100943.09
2023-01-25T09:24:07.908Z,100943.09
2023-01-25T09:26:42.978Z,100938.03
2023-01-25T09:29:13.619Z,100946.47
2023-01-25T09:31:43.849Z,100942.25
2023-01-25T09:34:35.763Z,100942.31
2023-01-25T09:37:04.432Z,100942.22
2023-01-25T09:39:33.157Z,100941.41
2023-01-25T09:42:43.622Z,100948.16
2023-01-25T09:45:33.951Z,100943.94
2023-01-25T09:48:15.199Z,100946.50
2023-01-25T09:51:06.406Z,100939.78
2023-01-25T09:53:38.521Z,100940.59
2023-01-25T09:56:14.798Z,100943.97
2023-01-25T09:58:48.505Z,100937.22
2023-01-25T10:01:38.682Z,100933.03
2023-01-25T10:04:16.967Z,100934.72
2023-01-25T10:06:59.752Z,100933.03
2023-01-25T10:09:42.641Z,100929.66
2023-01-25T10:12:18.099Z,100938.94
2023-01-25T10:14:48.555Z,100928.81
2023-01-25T10:17:33.449Z,100931.34
2023-01-25T10:20:18.802Z,100927.94
2023-01-25T10:22:52.083Z,100932.19
2023-01-25T10:25:29.335Z,100918.66
2023-01-25T10:28:14.601Z,100910.22
2023-01-25T10:30:56.073Z,100912.72
2023-01-25T10:33:24.881Z,100909.34
2023-01-25T10:35:53.865Z,100899.22
2023-01-25T10:38:29.522Z,100900.91
2023-01-25T10:41:05.758Z,100892.44
2023-01-25T10:43:34.406Z,100889.94
2023-01-25T10:46:05.030Z,100878.97
2023-01-25T10:48:36.969Z,100877.25
2023-01-25T10:51:06.165Z,100878.97
2023-01-25T10:53:37.044Z,100880.66
2023-01-25T10:56:26.134Z,100879.81
2023-01-25T10:59:10.045Z,100869.69
2023-01-25T11:01:40.062Z,100870.56
2023-01-25T11:04:33.529Z,100859.59
2023-01-25T11:07:02.945Z,100856.22
2023-01-25T11:09:38.634Z,100843.53
2023-01-25T11:12:19.316Z,100841.84
2023-01-25T11:14:50.946Z,100844.41
2023-01-25T11:17:31.800Z,100829.19
2023-01-25T11:20:19.389Z,100824.16
2023-01-25T11:22:53.296Z,100824.97
2023-01-25T11:25:29.114Z,100812.31
2023-01-25T11:28:19.286Z,100817.38
2023-01-25T11:30:48.970Z,100811.50
2023-01-25T11:33:21.552Z,100814.00
2023-01-25T11:36:12.272Z,100803.03
2023-01-25T11:38:54.647Z,100797.97
2023-01-25T11:41:35.094Z,100797.09
2023-01-25T11:44:33.826Z,100798.78
2023-01-25T11:47:17.527Z,100788.59
2023-01-25T11:50:00.822Z,100784.34
2023-01-25T11:52:39.164Z,100782.66
2023-01-25T11:55:24.829Z,100772.47
2023-01-25T11:58:08.989Z,100759.75
2023-01-25T12:00:50.086Z,100758.91
2023-01-25T12:04:17.779Z,100755.47
2023-01-25T12:07:00.452Z,100751.22
2023-01-25T12:09:57.580Z,100736.03
2023-01-25T12:12:43.126Z,100734.31
2023-01-25T12:15:58.285Z,100734.31
2023-01-25T12:19:08.062Z,100722.44
2023-01-25T12:21:59.698Z,100719.88
2023-01-25T12:24:45.568Z,100716.47
2023-01-25T12:27:30.746Z,100698.72
2023-01-25T12:30:05.877Z,100700.41
2023-01-25T12:32:40.963Z,100687.75
2023-01-25T12:35:26.908Z,100676.75
2023-01-25T12:38:05.423Z,100673.34
2023-01-25T12:40:48.294Z,100674.97
2023-01-25T12:43:22.511Z,100662.28
2023-01-25T12:45:52.988Z,100666.47
2023-01-25T12:48:26.868Z,100661.38
2023-01-25T12:50:58.151Z,100656.28
2023-01-25T12:53:34.818Z,100650.38
2023-01-25T12:56:06.052Z,100642.72
2023-01-25T12:58:44.753Z,100646.94
2023-01-25T13:01:24.320Z,100639.28
2023-01-25T13:04:12.505Z,100634.22
2023-01-25T13:06:50.732Z,100635.88
2023-01-25T13:09:29.138Z,100624.88
2023-01-25T13:11:57.999Z,100628.28
2023-01-25T13:14:38.453Z,100630.78
2023-01-25T13:17:23.346Z,100626.53
2023-01-25T13:19:53.551Z,100629.06
2023-01-25T13:23:01.417Z,100629.06
2023-01-25T13:25:31.553Z,100618.09
2023-01-25T13:28:42.829Z,100621.44
2023-01-25T13:31:11.815Z,100618.09
2023-01-25T13:33:40.544Z,100612.16
2023-01-25T13:36:46.709Z,100612.97
2023-01-25T13:39:45.160Z,100609.63
2023-01-25T13:42:26.805Z,100609.63
2023-01-25T13:44:57.799Z,100607.03
2023-01-25T13:47:29.414Z,100594.38
2023-01-25T13:50:07.152Z,100601.97
2023-01-25T13:52:35.961Z,100590.06
2023-01-25T13:55:18.366Z,100585.00
2023-01-25T13:57:48.638Z,100574.91
2023-01-25T14:00:19.094Z,100565.59
2023-01-25T14:02:54.749Z,100562.19
2023-01-25T14:05:26.203Z,100552.91
2023-01-25T14:07:57.453Z,100550.38
2023-01-25T14:10:28.558Z,100552.91
2023-01-25T14:13:01.569Z,100545.34
2023-01-25T14:15:33.223Z,100549.56
2023-01-25T14:18:15.282Z,100545.34
2023-01-25T14:20:45.008Z,100547.03
2023-01-25T14:23:25.807Z,100540.22
2023-01-25T14:25:55.925Z,100541.13
2023-01-25T14:28:26.371Z,100536.06
2023-01-25T14:30:57.741Z,100536.88
2023-01-25T14:33:30.065Z,100525.91
2023-01-25T14:36:22.819Z,100540.22
2023-01-25T14:38:52.943Z,100525.03
2023-01-25T14:41:27.382Z,100522.53
2023-01-25T14:43:59.639Z,100516.66
2023-01-25T14:46:31.000Z,100521.72
2023-01-25T14:49:25.468Z,100515.78
2023-01-25T14:52:03.504Z,100512.41
2023-01-25T14:54:35.250Z,100514.88
2023-01-25T14:57:06.031Z,100498.84
2023-01-25T14:59:40.166Z,100512.34
2023-01-25T15:02:22.880Z,100504.75
2023-01-25T15:05:04.834Z,100497.13
2023-01-25T15:07:46.631Z,100496.31
2023-01-25T15:10:22.663Z,100496.28
2023-01-25T15:13:12.901Z,100494.59
2023-01-25T15:15:56.620Z,100492.06
2023-01-25T15:18:45.629Z,100486.19
2023-01-25T15:21:17.087Z,100479.38
2023-01-25T15:23:47.627Z,100470.09
2023-01-25T15:26:21.008Z,100468.44
2023-01-25T15:28:50.654Z,100464.22
2023-01-25T15:31:25.588Z,100460.00
2023-01-25T15:33:55.451Z,100464.19
2023-01-25T15:36:24.132Z,100450.69
2023-01-25T15:38:53.017Z,100449.00
2023-01-25T15:41:22.322Z,100449.00
2023-01-25T15:43:52.136Z,100446.44
2023-01-25T15:46:25.210Z,100448.09
2023-01-25T15:48:54.846Z,100443.03
2023-01-25T15:51:23.552Z,100440.50
2023-01-25T15:53:52.655Z,100444.75
2023-01-25T15:56:23.093Z,100448.97
2023-01-25T15:58:55.172Z,100443.13
2023-01-25T16:01:27.730Z,100444.00
2023-01-25T16:03:57.329Z,100444.84
2023-01-25T16:06:37.133Z,100441.50
2023-01-25T16:09:15.956Z,100449.16
2023-01-25T16:11:44.935Z,100444.94
2023-01-25T16:14:14.058Z,100439.03
2023-01-25T16:16:47.265Z,100440.69
2023-01-25T16:19:17.742Z,100439.84
2023-01-25T16:21:46.449Z,100441.50
2023-01-25T16:24:15.696Z,100438.09
2023-01-25T16:26:47.369Z,100441.50
2023-01-25T16:29:16.182Z,100438.16
2023-01-25T16:31:47.323Z,100443.22
2023-01-25T16:34:15.997Z,100455.00
2023-01-25T16:36:50.134Z,100443.22
2023-01-25T16:39:21.070Z,100442.31
2023-01-25T16:41:50.358Z,100441.47
2023-01-25T16:44:19.272Z,100430.50
2023-01-25T16:46:50.453Z,100427.13
2023-01-25T16:49:22.031Z,100428.84
2023-01-25T16:51:51.704Z,100424.56
2023-01-25T16:54:20.987Z,100419.50
2023-01-25T16:56:50.301Z,100425.44
2023-01-25T16:59:20.331Z,100420.31
2023-01-25T17:01:50.799Z,100420.31
2023-01-25T17:04:20.507Z,100419.50
2023-01-25T17:06:53.075Z,100418.59
2023-01-25T17:09:25.425Z,100428.69
2023-01-25T17:11:54.781Z,100416.91
2023-01-25T17:14:24.510Z,100419.44
2023-01-25T17:16:54.677Z,100416.91
2023-01-25T17:19:23.779Z,100413.47
2023-01-25T17:21:52.386Z,100412.66
2023-01-25T17:24:22.417Z,100412.72
2023-01-25T17:26:56.870Z,100405.16
2023-01-25T17:29:26.350Z,100403.44
2023-01-25T17:31:56.809Z,100394.16
2023-01-25T17:34:25.668Z,100391.69
2023-01-25T17:36:54.282Z,100390.84
2023-01-25T17:39:23.282Z,100385.78
2023-01-25T17:41:53.041Z,100384.13
2023-01-25T17:44:24.514Z,100378.22
2023-01-25T17:46:53.568Z,100382.44
2023-01-25T17:49:24.983Z,100373.16
2023-01-25T17:51:53.922Z,100383.25
2023-01-25T17:54:22.570Z,100373.16
2023-01-25T17:56:51.226Z,100365.56
2023-01-25T17:59:19.850Z,100368.91
2023-01-25T18:01:48.821Z,100370.56
2023-01-25T18:04:18.051Z,100368.91
2023-01-25T18:06:48.026Z,100366.38
2023-01-25T18:09:16.808Z,100360.44
2023-01-25T18:11:45.788Z,100351.97
2023-01-25T18:14:18.691Z,100349.44
2023-01-25T18:16:47.356Z,100343.50
2023-01-25T18:19:16.024Z,100350.28
2023-01-25T18:21:44.640Z,100346.09
2023-01-25T18:24:28.864Z,100341.81
2023-01-25T18:27:05.093Z,100340.16
2023-01-25T18:29:46.771Z,100340.22
2023-01-25T18:32:16.727Z,100328.41
2023-01-25T18:34:48.142Z,100333.47
2023-01-25T18:37:21.070Z,100334.25
2023-01-25T18:39:53.203Z,100330.03
2023-01-25T18:42:24.636Z,100329.16
2023-01-25T18:44:53.263Z,100327.44
2023-01-25T18:47:23.949Z,100325.75
2023-01-25T18:49:54.438Z,100325.72
2023-01-25T18:52:25.255Z,100322.38
2023-01-25T18:54:55.386Z,100313.91
2023-01-25T18:57:25.059Z,100307.97
2023-01-25T18:59:54.506Z,100313.03
2023-01-25T19:02:23.984Z,100302.91
2023-01-25T19:04:52.621Z,100313.03
2023-01-25T19:07:21.278Z,100302.91
2023-01-25T19:09:50.037Z,100307.16
2023-01-25T19:12:20.069Z,100304.56
2023-01-25T19:14:48.740Z,100308.81
2023-01-25T19:17:17.382Z,100304.63
2023-01-25T19:19:45.940Z,100302.91
2023-01-25T19:22:14.553Z,100308.81
2023-01-25T19:24:43.132Z,100295.31
2023-01-25T19:27:11.754Z,100296.19
2023-01-25T19:29:41.725Z,100294.53
2023-01-25T19:32:11.138Z,100289.47
2023-01-25T19:34:39.991Z,100292.88
2023-01-25T19:37:08.615Z,100288.66
2023-01-25T19:39:37.461Z,100291.19
2023-01-25T19:42:07.175Z,100289.56
2023-01-25T19:44:35.814Z,100289.56
2023-01-25T19:47:05.986Z,100283.66
2023-01-25T19:49:34.609Z,100283.69
2023-01-25T19:52:03.493Z,100281.16
2023-01-25T19:54:32.100Z,100273.56
2023-01-25T19:57:00.746Z,100273.56
2023-01-25T19:59:29.689Z,100267.63
2023-01-25T20:01:58.418Z,100273.50
2023-01-25T20:04:28.603Z,100262.56
2023-01-25T20:06:57.206Z,100259.16
2023-01-25T20:09:28.026Z,100251.53
2023-01-25T20:11:58.294Z,100254.09
2023-01-25T20:14:27.043Z,100259.16
2023-01-25T20:16:55.649Z,100261.69
2023-01-25T20:19:24.368Z,100259.16
2023-01-25T20:21:54.372Z,100252.41
2023-01-25T20:24:23.428Z,100243.09
2023-01-25T20:26:52.536Z,100238.88
2023-01-25T20:29:22.342Z,100245.72
2023-01-25T20:31:51.086Z,100227.16
2023-01-25T20:34:22.245Z,100225.47
2023-01-25T20:36:53.332Z,100233.88
2023-01-25T20:39:23.194Z,100225.50
2023-01-25T20:41:53.451Z,100221.25
2023-01-25T20:44:22.451Z,100220.44
2023-01-25T20:46:54.450Z,100225.50
2023-01-25T20:49:23.347Z,100213.69
2023-01-25T20:51:53.394Z,100199.41
2023-01-25T20:54:22.199Z,100199.41
2023-01-25T20:56:50.843Z,100200.25
2023-01-25T20:59:19.572Z,100195.19
2023-01-25T21:01:48.404Z,100199.41
2023-01-25T21:04:17.121Z,100201.13
2023-01-25T21:06:45.701Z,100204.50
2023-01-25T21:09:15.855Z,100207.88
2023-01-25T21:11:44.614Z,100198.59
2023-01-25T21:14:13.200Z,100201.13
2023-01-25T21:16:41.869Z,100202.00
2023-01-25T21:19:11.850Z,100191.81
2023-01-25T21:21:40.429Z,100189.22
2023-01-25T21:24:11.897Z,100191.81
2023-01-25T21:26:42.242Z,100184.22
2023-01-25T21:29:10.831Z,100188.47
2023-01-25T21:31:42.514Z,100191.81
2023-01-25T21:34:11.856Z,100200.25
2023-01-25T21:36:40.454Z,100196.88
2023-01-25T21:39:09.222Z,100198.59
2023-01-25T21:41:37.897Z,100191.00
2023-01-25T21:44:25.521Z,100186.69
2023-01-25T21:47:23.552Z,100183.41
2023-01-25T21:50:00.132Z,100181.72
2023-01-25T21:52:28.761Z,100175.84
2023-01-25T21:54:57.413Z,100176.66
2023-01-25T21:57:26.146Z,100173.25
2023-01-25T21:59:56.105Z,100171.59
2023-01-25T22:02:24.734Z,100169.06
2023-01-25T22:04:53.402Z,100170.66
2023-01-25T22:07:22.072Z,100172.34
2023-01-25T22:09:50.705Z,100179.88
2023-01-25T22:12:19.447Z,100173.97
2023-01-25T22:14:48.188Z,100166.38
2023-01-25T22:17:19.774Z,100167.28
2023-01-25T22:19:48.392Z,100165.56
2023-01-25T22:22:16.962Z,100166.44
2023-01-25T22:24:45.598Z,100157.94
2023-01-25T22:27:36.893Z,100156.22
2023-01-25T22:30:07.156Z,100152.00
2023-01-25T22:32:37.093Z,100156.22
2023-01-25T22:35:06.512Z,100147.81
2023-01-25T22:37:38.073Z,100150.28
2023-01-25T22:40:09.856Z,100151.16
2023-01-25T22:42:38.606Z,100135.97
2023-01-25T22:45:09.261Z,100136.81
2023-01-25T22:47:41.419Z,100149.47
2023-01-25T22:50:12.497Z,100135.13
2023-01-25T22:52:41.318Z,100122.53
2023-01-25T22:55:10.948Z,100114.13
2023-01-25T22:57:39.559Z,100108.25
2023-01-25T23:00:10.768Z,100102.41
2023-01-25T23:02:41.029Z,100089.78
2023-01-25T23:05:10.060Z,100087.22
2023-01-25T23:07:38.661Z,100086.41
2023-01-25T23:10:08.814Z,100079.75
2023-01-25T23:12:37.553Z,100073.06
2023-01-25T23:15:15.673Z,100074.78
2023-01-25T23:18:03.351Z,100072.25
2023-01-25T23:20:32.126Z,100062.97
2023-01-25T23:23:00.771Z,100058.72
2023-01-25T23:25:30.551Z,100052.84
2023-01-25T23:27:59.317Z,100054.56
2023-01-25T23:30:27.970Z,100046.97
2023-01-25T23:32:58.758Z,100049.50
2023-01-25T23:35:27.657Z,100046.97
2023-01-25T23:37:56.337Z,100036.00
2023-01-25T23:40:25.089Z,100036.84
2023-01-25T23:42:53.765Z,100029.22
2023-01-25T23:45:22.429Z,100029.22
2023-01-25T23:47:50.986Z,100026.69
2023-01-25T23:50:21.007Z,100023.25
2023-01-25T23:52:49.656Z,100028.34
2023-01-25T23:55:18.392Z,100019.03
2023-01-25T23:57:47.015Z,100023.25
